createdAt,value
2023-01-01T00:00:29.035Z,-38.12
2023-01-01T00:01:28.986Z,-36.90
2023-01-01T00:02:34.883Z,-40.57
2023-01-01T00:03:33.014Z,-38.12
2023-01-01T00:04:31.983Z,-35.68
2023-01-01T00:05:28.937Z,-39.34
2023-01-01T00:06:28.917Z,-44.23
2023-01-01T00:07:28.907Z,-49.12
2023-01-01T00:08:28.887Z,-45.46
2023-01-01T00:09:28.915Z,-47.90
2023-01-01T00:10:28.869Z,-46.68
2023-01-01T00:11:28.897Z,-47.90
2023-01-01T00:12:28.853Z,-40.57
2023-01-01T00:13:28.854Z,-38.12
2023-01-01T00:14:28.824Z,-34.45
2023-01-01T00:15:28.819Z,-35.68
2023-01-01T00:16:28.855Z,-30.78
2023-01-01T00:17:28.903Z,-39.34
2023-01-01T00:18:28.771Z,-39.34
2023-01-01T00:19:28.780Z,-44.23
2023-01-01T00:20:34.739Z,-40.57
2023-01-01T00:21:29.712Z,-35.68
2023-01-01T00:22:53.490Z,-38.12
2023-01-01T00:23:32.722Z,-40.57
2023-01-01T00:24:31.692Z,-36.90
2023-01-01T00:25:28.663Z,-38.12
2023-01-01T00:26:34.541Z,-41.79
2023-01-01T00:27:29.634Z,-47.90
2023-01-01T00:28:28.614Z,-43.01
2023-01-01T00:29:28.644Z,-51.57
2023-01-01T00:30:28.589Z,-58.90
2023-01-01T00:31:28.608Z,-61.35
2023-01-01T00:32:28.613Z,-56.46
2023-01-01T00:33:28.552Z,-50.35
2023-01-01T00:34:28.528Z,-49.12
2023-01-01T00:35:28.586Z,-47.90
2023-01-01T00:36:28.526Z,-57.68
2023-01-01T00:37:37.683Z,-55.24
2023-01-01T00:38:28.513Z,-57.68
2023-01-01T00:39:28.489Z,-55.24
2023-01-01T00:40:28.453Z,-60.12
2023-01-01T00:41:28.483Z,-63.79
2023-01-01T00:42:28.444Z,-56.46
2023-01-01T00:43:31.424Z,-52.79
2023-01-01T00:44:31.413Z,-52.79
2023-01-01T00:45:28.375Z,-63.79
2023-01-01T00:46:28.383Z,-63.79
2023-01-01T00:47:28.384Z,-61.35
2023-01-01T00:48:28.351Z,-54.01
2023-01-01T00:49:28.337Z,-55.24
2023-01-01T00:50:28.307Z,-51.57
2023-01-01T00:51:31.679Z,-51.57
2023-01-01T00:52:29.310Z,-52.79
2023-01-01T00:53:28.295Z,-50.35
2023-01-01T00:54:28.267Z,-49.12
2023-01-01T00:55:28.246Z,-46.68
2023-01-01T00:56:28.239Z,-43.01
2023-01-01T00:57:28.278Z,-41.79
2023-01-01T00:58:28.208Z,-44.23
2023-01-01T00:59:29.152Z,-47.90
2023-01-01T01:00:28.174Z,-43.01
2023-01-01T01:01:28.216Z,-45.46
2023-01-01T01:02:28.308Z,-45.46
2023-01-01T01:03:31.236Z,-51.57
2023-01-01T01:04:31.130Z,-43.01
2023-01-01T01:05:28.096Z,-52.79
2023-01-01T01:06:28.116Z,-45.46
2023-01-01T01:07:28.080Z,-40.57
2023-01-01T01:08:31.101Z,-44.23
2023-01-01T01:09:28.094Z,-44.23
2023-01-01T01:10:28.034Z,-46.68
2023-01-01T01:11:28.002Z,-45.46
2023-01-01T01:12:28.010Z,-50.35
2023-01-01T01:13:27.991Z,-44.23
2023-01-01T01:14:27.974Z,-49.12
2023-01-01T01:15:28.025Z,-50.35
2023-01-01T01:16:28.025Z,-58.90
2023-01-01T01:17:27.950Z,-60.12
2023-01-01T01:18:27.922Z,-54.01
2023-01-01T01:19:27.916Z,-52.79
2023-01-01T01:20:27.894Z,-54.01
2023-01-01T01:21:27.901Z,-51.57
2023-01-01T01:22:28.893Z,-55.24
2023-01-01T01:23:30.847Z,-51.57
2023-01-01T01:24:30.895Z,-51.57
2023-01-01T01:25:27.828Z,-55.24
2023-01-01T01:26:27.864Z,-58.90
2023-01-01T01:27:27.788Z,-52.79
2023-01-01T01:28:27.831Z,-49.12
2023-01-01T01:29:27.761Z,-49.12
2023-01-01T01:30:27.806Z,-58.90
2023-01-01T01:31:27.741Z,-54.01
2023-01-01T01:32:27.747Z,-50.35
2023-01-01T01:33:27.721Z,-55.24
2023-01-01T01:34:28.483Z,-61.35
2023-01-01T01:35:27.690Z,-65.01
2023-01-01T01:36:27.666Z,-74.78
2023-01-01T01:37:27.664Z,-67.45
2023-01-01T01:38:27.648Z,-63.79
2023-01-01T01:39:27.632Z,-60.12
2023-01-01T01:40:27.662Z,-56.46
2023-01-01T01:41:28.938Z,-61.35
2023-01-01T01:42:27.580Z,-61.35
2023-01-01T01:43:30.575Z,-65.01
2023-01-01T01:44:30.564Z,-61.35
2023-01-01T01:45:33.230Z,-63.79
2023-01-01T01:46:28.615Z,-60.12
2023-01-01T01:47:27.525Z,-58.90
2023-01-01T01:48:27.502Z,-65.01
2023-01-01T01:49:27.498Z,-60.12
2023-01-01T01:50:27.494Z,-54.01
2023-01-01T01:51:27.457Z,-49.12
2023-01-01T01:52:27.546Z,-52.79
2023-01-01T01:53:27.441Z,-57.68
2023-01-01T01:54:27.428Z,-55.24
2023-01-01T01:55:27.405Z,-56.46
2023-01-01T01:56:27.388Z,-61.35
2023-01-01T01:57:27.375Z,-50.35
2023-01-01T01:58:27.399Z,-54.01
2023-01-01T01:59:27.349Z,-56.46
2023-01-01T02:00:27.337Z,-57.68
2023-01-01T02:01:27.368Z,-56.46
2023-01-01T02:02:27.468Z,-55.24
2023-01-01T02:03:30.382Z,-50.35
2023-01-01T02:04:30.289Z,-44.23
2023-01-01T02:05:27.274Z,-51.57
2023-01-01T02:06:27.256Z,-55.24
2023-01-01T02:07:27.241Z,-60.12
2023-01-01T02:08:27.225Z,-50.35
2023-01-01T02:09:27.248Z,-49.12
2023-01-01T02:10:27.195Z,-49.12
2023-01-01T02:11:27.186Z,-50.35
2023-01-01T02:12:27.191Z,-49.12
2023-01-01T02:13:27.219Z,-45.46
2023-01-01T02:14:27.146Z,-41.79
2023-01-01T02:15:27.127Z,-43.01
2023-01-01T02:16:27.132Z,-45.46
2023-01-01T02:17:27.115Z,-52.79
2023-01-01T02:18:27.077Z,-54.01
2023-01-01T02:19:27.106Z,-54.01
2023-01-01T02:20:27.084Z,-49.12
2023-01-01T02:21:27.057Z,-54.01
2023-01-01T02:22:27.032Z,-52.79
2023-01-01T02:23:30.023Z,-50.35
2023-01-01T02:24:30.023Z,-54.01
2023-01-01T02:25:27.065Z,-55.24
2023-01-01T02:26:26.972Z,-47.90
2023-01-01T02:27:26.961Z,-49.12
2023-01-01T02:28:26.941Z,-51.57
2023-01-01T02:29:26.936Z,-52.79
2023-01-01T02:30:26.913Z,-51.57
2023-01-01T02:31:27.075Z,-49.12
2023-01-01T02:32:26.892Z,-46.68
2023-01-01T02:33:26.883Z,-41.79
2023-01-01T02:34:26.873Z,-40.57
2023-01-01T02:35:26.847Z,-43.01
2023-01-01T02:36:26.834Z,-45.46
2023-01-01T02:37:26.847Z,-44.23
2023-01-01T02:38:26.805Z,-45.46
2023-01-01T02:39:26.796Z,-45.46
2023-01-01T02:40:26.778Z,-45.46
2023-01-01T02:41:26.767Z,-41.79
2023-01-01T02:42:26.925Z,-36.90
2023-01-01T02:43:29.751Z,-40.57
2023-01-01T02:44:29.746Z,-35.68
2023-01-01T02:45:26.726Z,-36.90
2023-01-01T02:46:57.023Z,-66.23
2023-01-01T02:47:57.020Z,-36.90
2023-01-01T02:48:56.998Z,-36.90
2023-01-01T02:49:56.999Z,-30.78
2023-01-01T02:50:56.960Z,-27.11
2023-01-01T02:51:57.001Z,-33.23
2023-01-01T02:52:56.985Z,-36.90
2023-01-01T02:53:56.928Z,-34.45
2023-01-01T02:54:56.911Z,-34.45
2023-01-01T02:55:56.922Z,-29.56
2023-01-01T02:56:56.891Z,-27.11
2023-01-01T02:57:56.905Z,-23.44
2023-01-01T02:58:56.861Z,-19.77
2023-01-01T02:59:56.839Z,-21.00
2023-01-01T03:00:56.824Z,-14.88
2023-01-01T03:01:56.952Z,-14.88
2023-01-01T03:02:56.945Z,-18.55
2023-01-01T03:03:56.785Z,-21.00
2023-01-01T03:04:56.771Z,-19.77
2023-01-01T03:05:59.778Z,-17.32
2023-01-01T03:06:59.752Z,-9.98
2023-01-01T03:07:56.730Z,-17.32
2023-01-01T03:08:56.772Z,-12.43
2023-01-01T03:09:56.698Z,-12.43
2023-01-01T03:10:56.682Z,-14.88
2023-01-01T03:11:56.669Z,-9.98
2023-01-01T03:12:56.649Z,-6.31
2023-01-01T03:13:56.651Z,-3.86
2023-01-01T03:14:56.678Z,-3.86
2023-01-01T03:15:56.648Z,-6.31
2023-01-01T03:16:56.612Z,-5.08
2023-01-01T03:17:56.598Z,-5.08
2023-01-01T03:18:56.581Z,-5.08
2023-01-01T03:19:56.592Z,-7.53
2023-01-01T03:20:56.550Z,-2.63
2023-01-01T03:21:56.544Z,2.26
2023-01-01T03:22:56.534Z,-2.63
2023-01-01T03:23:56.527Z,-7.53
2023-01-01T03:24:56.576Z,1.04
2023-01-01T03:25:59.479Z,-3.86
2023-01-01T03:26:59.485Z,2.26
2023-01-01T03:27:56.454Z,1.04
2023-01-01T03:28:56.467Z,-1.41
2023-01-01T03:29:56.493Z,2.26
2023-01-01T03:30:56.500Z,4.71
2023-01-01T03:31:56.420Z,4.71
2023-01-01T03:32:56.392Z,10.84
2023-01-01T03:33:56.376Z,5.94
2023-01-01T03:34:56.448Z,8.39
2023-01-01T03:35:56.342Z,7.16
2023-01-01T03:36:56.343Z,8.39
2023-01-01T03:37:56.325Z,12.06
2023-01-01T03:38:56.311Z,10.84
2023-01-01T03:39:56.290Z,8.39
2023-01-01T03:40:56.312Z,5.94
2023-01-01T03:41:56.272Z,12.06
2023-01-01T03:42:56.253Z,16.96
2023-01-01T03:43:56.236Z,9.61
2023-01-01T03:44:56.221Z,12.06
2023-01-01T03:45:59.290Z,7.16
2023-01-01T03:46:59.253Z,8.39
2023-01-01T03:47:56.191Z,8.39
2023-01-01T03:49:02.575Z,10.84
2023-01-01T03:49:57.156Z,8.39
2023-01-01T03:50:56.141Z,1.04
2023-01-01T03:51:56.157Z,3.49
2023-01-01T03:52:56.118Z,4.71
2023-01-01T03:53:56.098Z,8.39
2023-01-01T03:54:59.120Z,15.74
2023-01-01T03:55:56.068Z,19.42
2023-01-01T03:56:56.119Z,12.06
2023-01-01T03:57:56.061Z,13.29
2023-01-01T03:58:56.032Z,9.61
2023-01-01T03:59:56.028Z,15.74
2023-01-01T04:00:56.004Z,16.96
2023-01-01T04:01:56.072Z,21.87
2023-01-01T04:02:56.043Z,24.32
2023-01-01T04:03:55.971Z,24.32
2023-01-01T04:04:55.944Z,24.32
2023-01-01T04:05:58.945Z,29.22
2023-01-01T04:07:09.316Z,25.54
2023-01-01T04:07:56.945Z,29.22
2023-01-01T04:08:55.902Z,28.00
2023-01-01T04:09:55.882Z,21.87
2023-01-01T04:10:55.876Z,25.54
2023-01-01T04:11:55.850Z,24.32
2023-01-01T04:12:55.851Z,20.64
2023-01-01T04:13:55.864Z,21.87
2023-01-01T04:14:55.817Z,19.42
2023-01-01T04:15:55.882Z,18.19
2023-01-01T04:16:55.786Z,24.32
2023-01-01T04:17:55.789Z,25.54
2023-01-01T04:18:55.794Z,31.67
2023-01-01T04:19:55.748Z,26.77
2023-01-01T04:20:55.737Z,25.54
2023-01-01T04:21:55.737Z,15.74
2023-01-01T04:22:55.901Z,15.74
2023-01-01T04:23:55.707Z,14.51
2023-01-01T04:24:55.686Z,15.74
2023-01-01T04:25:58.658Z,13.29
2023-01-01T04:26:58.677Z,10.84
2023-01-01T04:27:55.640Z,13.29
2023-01-01T04:28:55.668Z,20.64
2023-01-01T04:29:55.617Z,24.32
2023-01-01T04:31:26.639Z,-24.67
2023-01-01T04:32:26.616Z,23.09
2023-01-01T04:33:26.616Z,15.74
2023-01-01T04:34:26.751Z,20.64
2023-01-01T04:35:26.597Z,18.19
2023-01-01T04:36:26.568Z,7.16
2023-01-01T04:37:26.569Z,10.84
2023-01-01T04:38:26.551Z,4.71
2023-01-01T04:39:26.531Z,-0.19
2023-01-01T04:40:26.539Z,-0.19
2023-01-01T04:41:26.524Z,4.71
2023-01-01T04:42:26.480Z,2.26
2023-01-01T04:43:26.475Z,-2.63
2023-01-01T04:44:26.452Z,1.04
2023-01-01T04:45:26.547Z,-1.41
2023-01-01T04:46:26.463Z,-8.76
2023-01-01T04:47:26.413Z,-8.76
2023-01-01T04:48:26.400Z,-9.98
2023-01-01T04:49:26.392Z,-6.31
2023-01-01T04:50:29.375Z,-7.53
2023-01-01T04:51:29.392Z,-5.08
2023-01-01T04:52:26.347Z,-11.20
2023-01-01T04:53:26.338Z,-11.20
2023-01-01T04:54:26.313Z,-9.98
2023-01-01T04:55:26.313Z,-12.43
2023-01-01T04:56:26.305Z,-11.20
2023-01-01T04:57:26.273Z,-9.98
2023-01-01T04:58:26.255Z,-12.43
2023-01-01T04:59:26.258Z,-17.32
2023-01-01T05:00:26.235Z,-16.10
2023-01-01T05:01:26.588Z,-13.65
2023-01-01T05:02:26.357Z,-17.32
2023-01-01T05:03:26.206Z,-14.88
2023-01-01T05:04:26.170Z,-13.65
2023-01-01T05:05:26.171Z,-14.88
2023-01-01T05:06:26.139Z,-23.44
2023-01-01T05:07:26.160Z,-27.11
2023-01-01T05:08:26.160Z,-24.67
2023-01-01T05:09:26.103Z,-24.67
2023-01-01T05:10:29.096Z,-17.32
2023-01-01T05:11:29.112Z,-16.10
2023-01-01T05:12:26.068Z,-17.32
2023-01-01T05:13:26.052Z,-16.10
2023-01-01T05:14:26.058Z,-14.88
2023-01-01T05:15:26.012Z,-16.10
2023-01-01T05:16:26.021Z,-17.32
2023-01-01T05:17:25.995Z,-18.55
2023-01-01T05:18:26.003Z,-18.55
2023-01-01T05:19:25.962Z,-21.00
2023-01-01T05:20:25.947Z,-22.22
2023-01-01T05:21:25.934Z,-24.67
2023-01-01T05:22:25.935Z,-19.77
2023-01-01T05:23:25.944Z,-24.67
2023-01-01T05:24:25.892Z,-23.44
2023-01-01T05:25:25.885Z,-28.34
2023-01-01T05:26:25.867Z,-29.56
2023-01-01T05:27:25.847Z,-30.78
2023-01-01T05:28:25.864Z,-32.01
2023-01-01T05:29:25.826Z,-30.78
2023-01-01T05:30:28.837Z,-35.68
2023-01-01T05:31:28.833Z,-30.78
2023-01-01T05:32:25.786Z,-33.23
2023-01-01T05:33:25.771Z,-32.01
2023-01-01T05:34:25.787Z,-25.89
2023-01-01T05:35:26.690Z,-24.67
2023-01-01T05:36:25.734Z,-28.34
2023-01-01T05:37:25.731Z,-19.77
2023-01-01T05:38:25.693Z,-16.10
2023-01-01T05:39:25.718Z,-28.34
2023-01-01T05:40:25.671Z,-25.89
2023-01-01T05:41:25.669Z,-32.01
2023-01-01T05:42:25.644Z,-34.45
2023-01-01T05:43:25.663Z,-30.78
2023-01-01T05:44:25.682Z,-28.34
2023-01-01T05:45:25.605Z,-28.34
2023-01-01T05:46:25.592Z,-25.89
2023-01-01T05:47:29.687Z,-18.55
2023-01-01T05:48:25.560Z,-18.55
2023-01-01T05:49:25.553Z,-22.22
2023-01-01T05:50:28.594Z,-25.89
2023-01-01T05:51:28.571Z,-23.44
2023-01-01T05:52:26.953Z,-22.22
2023-01-01T05:53:25.485Z,-22.22
2023-01-01T05:54:25.475Z,-17.32
2023-01-01T05:55:25.464Z,-21.00
2023-01-01T05:56:25.501Z,-19.77
2023-01-01T05:57:25.448Z,-17.32
2023-01-01T05:58:25.418Z,-11.20
2023-01-01T05:59:25.405Z,-17.32
2023-01-01T06:00:25.388Z,-22.22
2023-01-01T06:01:25.573Z,-19.77
2023-01-01T06:02:25.449Z,-22.22
2023-01-01T06:03:25.359Z,-24.67
2023-01-01T06:04:25.381Z,-27.11
2023-01-01T06:05:25.320Z,-19.77
2023-01-01T06:06:25.328Z,-24.67
2023-01-01T06:07:25.312Z,-28.34
2023-01-01T06:08:25.281Z,-27.11
2023-01-01T06:09:25.274Z,-35.68
2023-01-01T06:10:28.280Z,-24.67
2023-01-01T06:11:28.256Z,-25.89
2023-01-01T06:12:25.293Z,-17.32
2023-01-01T06:13:25.208Z,-1.41
2023-01-01T06:14:25.200Z,-5.08
2023-01-01T06:15:25.180Z,-5.08
2023-01-01T06:16:25.215Z,-0.19
2023-01-01T06:17:25.146Z,9.61
2023-01-01T06:18:25.174Z,14.51
2023-01-01T06:19:25.153Z,9.61
2023-01-01T06:20:25.135Z,2.26
2023-01-01T06:21:25.097Z,7.16
2023-01-01T06:22:25.085Z,-0.19
2023-01-01T06:23:25.074Z,2.26
2023-01-01T06:24:25.117Z,3.49
2023-01-01T06:25:25.047Z,3.49
2023-01-01T06:26:25.030Z,-0.19
2023-01-01T06:27:25.007Z,4.71
2023-01-01T06:28:25.008Z,9.61
2023-01-01T06:29:24.985Z,4.71
2023-01-01T06:30:28.088Z,7.16
2023-01-01T06:31:27.967Z,9.61
2023-01-01T06:32:24.947Z,13.29
2023-01-01T06:33:24.935Z,14.51
2023-01-01T06:34:24.919Z,15.74
2023-01-01T06:35:24.950Z,19.42
2023-01-01T06:36:24.897Z,18.19
2023-01-01T06:37:24.880Z,15.74
2023-01-01T06:38:24.869Z,20.64
2023-01-01T06:39:24.859Z,32.90
2023-01-01T06:40:24.839Z,32.90
2023-01-01T06:41:24.887Z,32.90
2023-01-01T06:42:28.992Z,34.13
2023-01-01T06:43:25.792Z,40.26
2023-01-01T06:44:24.818Z,34.13
2023-01-01T06:45:24.781Z,42.19
2023-01-01T06:46:24.847Z,35.35
2023-01-01T06:47:24.745Z,44.43
2023-01-01T06:48:24.723Z,36.59
2023-01-01T06:49:24.720Z,40.26
2023-01-01T06:50:27.704Z,38.10
2023-01-01T06:51:27.761Z,36.58
2023-01-01T06:52:24.686Z,41.57
2023-01-01T06:53:24.674Z,40.56
2023-01-01T06:54:24.644Z,41.48
2023-01-01T06:55:24.631Z,39.58
2023-01-01T06:56:24.619Z,41.95
2023-01-01T06:57:24.666Z,46.86
2023-01-01T06:58:24.588Z,46.23
2023-01-01T06:59:24.577Z,48.90
2023-01-01T07:00:24.557Z,50.34
2023-01-01T07:01:24.715Z,43.33
2023-01-01T07:02:24.688Z,43.94
2023-01-01T07:03:24.654Z,41.48
2023-01-01T07:04:24.518Z,46.81
2023-01-01T07:05:24.479Z,41.48
2023-01-01T07:06:24.480Z,37.26
2023-01-01T07:07:24.480Z,49.85
2023-01-01T07:08:24.478Z,49.04
2023-01-01T07:09:24.454Z,50.43
2023-01-01T07:10:27.435Z,56.12
2023-01-01T07:11:27.418Z,48.77
2023-01-01T07:12:24.441Z,51.50
2023-01-01T07:13:24.376Z,62.01
2023-01-01T07:14:24.380Z,63.81
2023-01-01T07:15:24.351Z,67.28
2023-01-01T07:16:24.448Z,64.62
2023-01-01T07:17:24.323Z,58.07
2023-01-01T07:18:24.381Z,59.09
2023-01-01T07:19:24.287Z,58.75
2023-01-01T07:20:24.291Z,60.19
2023-01-01T07:21:28.759Z,64.98
2023-01-01T07:22:25.260Z,60.76
2023-01-01T07:23:24.236Z,66.20
2023-01-01T07:24:24.255Z,62.35
2023-01-01T07:25:24.287Z,58.69
2023-01-01T07:26:24.196Z,63.77
2023-01-01T07:27:24.212Z,63.29
2023-01-01T07:28:24.174Z,71.41
2023-01-01T07:29:24.148Z,66.42
2023-01-01T07:30:27.199Z,67.17
2023-01-01T07:31:27.155Z,61.67
2023-01-01T07:32:24.118Z,56.96
2023-01-01T07:33:24.112Z,53.26
2023-01-01T07:34:24.101Z,55.89
2023-01-01T07:35:24.077Z,62.98
2023-01-01T07:36:24.079Z,69.24
2023-01-01T07:37:24.042Z,68.23
2023-01-01T07:38:24.030Z,65.69
2023-01-01T07:39:24.019Z,87.60
2023-01-01T07:40:24.015Z,79.04
2023-01-01T07:41:24.036Z,87.37
2023-01-01T07:42:23.991Z,89.37
2023-01-01T07:43:23.961Z,83.19
2023-01-01T07:44:23.956Z,87.52
2023-01-01T07:45:23.936Z,92.49
2023-01-01T07:46:24.027Z,100.36
2023-01-01T07:47:23.937Z,91.31
2023-01-01T07:48:23.893Z,87.07
2023-01-01T07:49:23.876Z,88.39
2023-01-01T07:50:26.866Z,85.58
2023-01-01T07:51:26.866Z,92.64
2023-01-01T07:52:23.901Z,95.78
2023-01-01T07:53:23.824Z,97.55
2023-01-01T07:54:23.808Z,93.69
2023-01-01T07:55:23.789Z,94.85
2023-01-01T07:56:23.810Z,95.17
2023-01-01T07:57:23.803Z,102.96
2023-01-01T07:58:23.760Z,98.16
2023-01-01T07:59:23.766Z,95.09
2023-01-01T08:00:23.751Z,99.16
2023-01-01T08:01:23.792Z,111.33
2023-01-01T08:02:23.849Z,101.24
2023-01-01T08:03:23.744Z,99.70
2023-01-01T08:04:23.671Z,98.59
2023-01-01T08:05:26.949Z,99.78
2023-01-01T08:06:23.639Z,95.42
2023-01-01T08:07:23.663Z,100.68
2023-01-01T08:08:23.624Z,98.13
2023-01-01T08:09:23.593Z,102.04
2023-01-01T08:10:26.587Z,105.10
2023-01-01T08:11:26.603Z,115.22
2023-01-01T08:12:23.564Z,104.35
2023-01-01T08:13:23.577Z,109.39
2023-01-01T08:14:23.604Z,103.76
2023-01-01T08:15:23.525Z,110.97
2023-01-01T08:16:23.552Z,113.04
2023-01-01T08:17:23.492Z,108.73
2023-01-01T08:18:23.478Z,114.25
2023-01-01T08:19:23.471Z,115.12
2023-01-01T08:20:23.518Z,105.60
2023-01-01T08:21:23.425Z,115.81
2023-01-01T08:22:23.428Z,108.12
2023-01-01T08:23:23.407Z,108.13
2023-01-01T08:24:23.389Z,114.45
2023-01-01T08:25:23.379Z,116.90
2023-01-01T08:26:23.408Z,108.11
2023-01-01T08:27:23.349Z,104.35
2023-01-01T08:28:23.339Z,116.11
2023-01-01T08:29:23.325Z,110.23
2023-01-01T08:30:26.315Z,114.58
2023-01-01T08:31:26.362Z,114.11
2023-01-01T08:32:23.281Z,102.94
2023-01-01T08:33:23.267Z,109.33
2023-01-01T08:34:23.262Z,104.86
2023-01-01T08:35:23.235Z,100.30
2023-01-01T08:36:23.255Z,102.13
2023-01-01T08:37:23.263Z,93.36
2023-01-01T08:38:23.204Z,102.41
2023-01-01T08:39:23.185Z,103.94
2023-01-01T08:40:23.181Z,107.52
2023-01-01T08:41:23.153Z,113.36
2023-01-01T08:42:23.148Z,122.59
2023-01-01T08:43:23.173Z,108.46
2023-01-01T08:44:23.134Z,107.82
2023-01-01T08:45:23.114Z,110.17
2023-01-01T08:46:23.171Z,103.79
2023-01-01T08:47:23.093Z,98.22
2023-01-01T08:48:27.162Z,103.75
2023-01-01T08:49:24.075Z,97.26
2023-01-01T08:50:26.034Z,87.45
2023-01-01T08:51:26.061Z,103.92
2023-01-01T08:52:23.010Z,103.89
2023-01-01T08:53:23.000Z,100.95
2023-01-01T08:54:23.032Z,95.94
2023-01-01T08:55:22.996Z,100.01
2023-01-01T08:56:22.960Z,123.18
2023-01-01T08:57:22.933Z,104.27
2023-01-01T08:58:22.924Z,96.06
2023-01-01T08:59:22.903Z,108.02
2023-01-01T09:00:22.922Z,124.79
2023-01-01T09:01:22.955Z,134.17
2023-01-01T09:02:23.021Z,122.18
2023-01-01T09:03:23.149Z,125.95
2023-01-01T09:04:22.838Z,133.99
2023-01-01T09:05:22.823Z,140.75
2023-01-01T09:06:22.842Z,153.51
2023-01-01T09:07:22.835Z,149.79
2023-01-01T09:08:22.798Z,157.23
2023-01-01T09:09:27.398Z,155.14
2023-01-01T09:10:26.896Z,152.58
2023-01-01T09:11:25.764Z,162.23
2023-01-01T09:12:22.726Z,156.69
2023-01-01T09:13:22.753Z,158.57
2023-01-01T09:14:22.704Z,164.12
2023-01-01T09:15:22.691Z,160.29
2023-01-01T09:16:22.792Z,164.75
2023-01-01T09:17:22.660Z,149.66
2023-01-01T09:18:22.649Z,147.91
2023-01-01T09:19:22.702Z,162.47
2023-01-01T09:20:22.617Z,150.76
2023-01-01T09:21:22.630Z,138.21
2023-01-01T09:22:22.596Z,137.70
2023-01-01T09:23:22.566Z,129.29
2023-01-01T09:24:22.583Z,141.01
2023-01-01T09:25:22.587Z,145.37
2023-01-01T09:26:22.551Z,140.88
2023-01-01T09:27:22.543Z,136.46
2023-01-01T09:28:25.936Z,136.19
2023-01-01T09:29:22.495Z,139.20
2023-01-01T09:30:25.543Z,133.75
2023-01-01T09:31:25.616Z,132.35
2023-01-01T09:32:22.529Z,131.44
2023-01-01T09:33:22.476Z,126.76
2023-01-01T09:34:22.424Z,143.33
2023-01-01T09:35:22.413Z,154.30
2023-01-01T09:36:22.409Z,145.62
2023-01-01T09:37:22.383Z,132.76
2023-01-01T09:38:22.427Z,136.28
2023-01-01T09:39:22.359Z,134.21
2023-01-01T09:40:22.346Z,125.95
2023-01-01T09:41:22.335Z,124.66
2023-01-01T09:42:22.325Z,126.00
2023-01-01T09:43:22.297Z,124.06
2023-01-01T09:44:22.330Z,134.77
2023-01-01T09:45:22.275Z,130.66
2023-01-01T09:46:27.961Z,122.00
2023-01-01T09:47:23.266Z,131.58
2023-01-01T09:48:22.265Z,130.85
2023-01-01T09:49:22.207Z,117.83
2023-01-01T09:50:25.322Z,107.51
2023-01-01T09:51:25.201Z,116.12
2023-01-01T09:52:22.186Z,114.65
2023-01-01T09:53:22.210Z,113.55
2023-01-01T09:54:22.150Z,107.30
2023-01-01T09:55:22.140Z,110.63
2023-01-01T09:56:22.138Z,111.38
2023-01-01T09:57:22.113Z,102.56
2023-01-01T09:58:22.110Z,104.49
2023-01-01T09:59:22.101Z,99.39
2023-01-01T10:00:22.078Z,113.59
2023-01-01T10:01:22.167Z,117.00
2023-01-01T10:02:22.108Z,94.38
2023-01-01T10:03:22.032Z,99.56
2023-01-01T10:04:22.075Z,90.45
2023-01-01T10:05:22.001Z,100.02
2023-01-01T10:06:22.000Z,100.14
2023-01-01T10:07:21.964Z,92.41
2023-01-01T10:08:23.657Z,97.94
2023-01-01T10:09:21.974Z,90.33
2023-01-01T10:10:24.964Z,88.24
2023-01-01T10:11:25.037Z,87.08
2023-01-01T10:12:21.900Z,89.69
2023-01-01T10:13:21.889Z,82.69
2023-01-01T10:14:21.886Z,88.66
2023-01-01T10:15:21.856Z,85.87
2023-01-01T10:16:24.736Z,71.50
2023-01-01T10:17:21.860Z,57.18
2023-01-01T10:18:21.830Z,53.44
2023-01-01T10:19:21.808Z,56.20
2023-01-01T10:20:21.798Z,52.97
2023-01-01T10:21:21.782Z,47.76
2023-01-01T10:22:21.790Z,42.24
2023-01-01T10:23:21.752Z,40.26
2023-01-01T10:24:21.740Z,45.16
2023-01-01T10:25:21.726Z,42.90
2023-01-01T10:26:21.715Z,28.00
2023-01-01T10:27:21.721Z,25.54
2023-01-01T10:28:21.683Z,30.45
2023-01-01T10:29:21.691Z,34.13
2023-01-01T10:30:24.642Z,36.58
2023-01-01T10:31:24.681Z,32.90
2023-01-01T10:32:21.634Z,26.77
2023-01-01T10:33:21.611Z,25.54
2023-01-01T10:34:21.654Z,26.77
2023-01-01T10:35:25.327Z,30.45
2023-01-01T10:36:22.597Z,46.39
2023-01-01T10:37:21.561Z,51.08
2023-01-01T10:38:21.542Z,49.11
2023-01-01T10:39:21.531Z,44.10
2023-01-01T10:40:21.610Z,34.13
2023-01-01T10:41:21.510Z,31.67
2023-01-01T10:42:21.480Z,29.22
2023-01-01T10:43:21.480Z,40.72
2023-01-01T10:44:21.454Z,54.01
2023-01-01T10:45:21.444Z,62.84
2023-01-01T10:46:26.027Z,71.98
2023-01-01T10:47:22.420Z,65.61
2023-01-01T10:48:21.405Z,80.17
2023-01-01T10:49:21.386Z,80.93
2023-01-01T10:50:24.369Z,99.07
2023-01-01T10:51:24.406Z,105.21
2023-01-01T10:52:21.344Z,122.44
2023-01-01T10:53:21.403Z,117.10
2023-01-01T10:54:25.202Z,92.39
2023-01-01T10:55:22.320Z,86.55
2023-01-01T10:56:21.290Z,74.47
2023-01-01T10:57:21.290Z,83.48
2023-01-01T10:58:21.262Z,95.36
2023-01-01T10:59:21.302Z,105.88
2023-01-01T11:00:21.251Z,106.31
2023-01-01T11:01:21.326Z,113.32
2023-01-01T11:02:21.550Z,116.37
2023-01-01T11:03:21.235Z,128.83
2023-01-01T11:04:21.186Z,134.00
2023-01-01T11:05:22.577Z,117.41
2023-01-01T11:06:21.154Z,116.54
2023-01-01T11:07:21.143Z,125.17
2023-01-01T11:08:21.115Z,127.64
2023-01-01T11:09:21.167Z,132.21
2023-01-01T11:10:24.158Z,130.73
2023-01-01T11:11:24.095Z,118.78
2023-01-01T11:12:54.519Z,125.36
2023-01-01T11:13:22.054Z,133.49
2023-01-01T11:14:21.052Z,125.87
2023-01-01T11:15:21.047Z,133.29
2023-01-01T11:16:21.065Z,133.19
2023-01-01T11:17:21.061Z,146.17
2023-01-01T11:18:20.991Z,130.29
2023-01-01T11:19:20.977Z,135.35
2023-01-01T11:20:20.955Z,136.36
2023-01-01T11:21:20.949Z,126.73
2023-01-01T11:22:20.930Z,107.37
2023-01-01T11:23:20.963Z,129.06
2023-01-01T11:24:20.888Z,120.30
2023-01-01T11:25:20.893Z,121.61
2023-01-01T11:26:20.870Z,117.91
2023-01-01T11:27:20.868Z,116.43
2023-01-01T11:28:20.843Z,133.81
2023-01-01T11:29:20.907Z,143.39
2023-01-01T11:30:23.810Z,140.08
2023-01-01T11:31:23.899Z,133.72
2023-01-01T11:32:20.792Z,147.33
2023-01-01T11:33:20.773Z,140.27
2023-01-01T11:34:20.784Z,125.09
2023-01-01T11:35:20.784Z,132.12
2023-01-01T11:36:20.733Z,152.77
2023-01-01T11:37:20.725Z,153.72
2023-01-01T11:38:25.854Z,142.15
2023-01-01T11:39:21.701Z,134.67
2023-01-01T11:40:20.678Z,139.73
2023-01-01T11:41:20.695Z,158.99
2023-01-01T11:42:20.656Z,139.85
2023-01-01T11:43:20.636Z,139.90
2023-01-01T11:44:20.629Z,144.35
2023-01-01T11:45:20.672Z,148.56
2023-01-01T11:46:20.664Z,164.55
2023-01-01T11:47:20.595Z,158.26
2023-01-01T11:48:20.565Z,151.28
2023-01-01T11:49:20.558Z,148.99
2023-01-01T11:50:23.540Z,153.36
2023-01-01T11:51:23.599Z,141.14
2023-01-01T11:52:20.509Z,128.60
2023-01-01T11:53:20.511Z,125.33
2023-01-01T11:54:20.489Z,116.05
2023-01-01T11:55:21.441Z,125.30
2023-01-01T11:56:20.482Z,128.17
2023-01-01T11:57:20.473Z,110.08
2023-01-01T11:58:20.421Z,126.58
2023-01-01T11:59:20.436Z,119.89
2023-01-01T12:00:20.405Z,106.25
2023-01-01T12:01:20.401Z,92.05
2023-01-01T12:02:20.438Z,93.82
2023-01-01T12:03:20.460Z,76.30
2023-01-01T12:04:20.398Z,81.84
2023-01-01T12:05:20.358Z,70.86
2023-01-01T12:06:20.351Z,62.80
2023-01-01T12:07:20.317Z,47.05
2023-01-01T12:08:20.329Z,25.54
2023-01-01T12:09:20.279Z,36.58
2023-01-01T12:10:23.257Z,15.74
2023-01-01T12:11:23.318Z,9.61
2023-01-01T12:12:20.240Z,26.77
2023-01-01T12:13:20.219Z,29.22
2023-01-01T12:14:20.211Z,18.19
2023-01-01T12:15:20.206Z,12.06
2023-01-01T12:16:20.241Z,8.39
2023-01-01T12:17:20.163Z,16.96
2023-01-01T12:18:20.158Z,23.09
2023-01-01T12:19:20.141Z,24.32
2023-01-01T12:20:20.117Z,34.13
2023-01-01T12:21:20.126Z,36.58
2023-01-01T12:22:20.160Z,25.54
2023-01-01T12:23:20.079Z,25.54
2023-01-01T12:24:20.069Z,45.16
2023-01-01T12:25:20.056Z,35.41
2023-01-01T12:26:20.045Z,45.16
2023-01-01T12:27:20.048Z,59.44
2023-01-01T12:28:20.062Z,44.50
2023-01-01T12:29:20.013Z,36.58
2023-01-01T12:30:22.978Z,46.73
2023-01-01T12:31:23.014Z,60.25
2023-01-01T12:32:19.966Z,64.78
2023-01-01T12:33:19.946Z,51.40
2023-01-01T12:34:19.942Z,45.71
2023-01-01T12:35:19.942Z,61.70
2023-01-01T12:36:19.894Z,82.04
2023-01-01T12:37:19.892Z,67.89
2023-01-01T12:38:19.891Z,55.89
2023-01-01T12:39:19.856Z,48.07
2023-01-01T12:40:24.550Z,55.62